Gallup Municipal Airport
KGUP : now visible

Airfield :











YOU CAN JOIN US ON...

 
LOGIN :

Register | Disclaimer

   EN    FR    IT 

 









Legend :    VFR   Marginal VFR   IFR   Intensive IFR   Very Intensive IFR
Visi :
Ceiling :
>= 8 km
>= 3000ft
5 to 8 km
1000 to 3000 ft
1500m to 5 km
500 to 1000 ft
800 to 1500m
200 to 500 ft
< 800m
< 200 ft
Symbols :   Thunderstorms  Fog  Heavy snow  Heavy precipitations  Wind > 20 kt







- Airport Elevation : 6472 ft
- IATA code : GUP


KGUP - Gallup Municipal

CURRENT METAR :
  • 181853Z AUTO 28010G16KT 10SM CLR 32/02 A3023 RMK AO2 SLP020 T03220017

EXPIRED METARs :
  • 181753Z AUTO 31004G14KT 10SM CLR 30/06 A3025 RMK AO2 SLP046 T03000056 10300 20156 58009
  • 181653Z AUTO 00000KT 10SM CLR 28/06 A3027 RMK AO2 SLP049 T02780061

TAF KGUP
Valid from the 18 at 18:00 until the 19 at 18:00 UTC


181720Z 1818/1918 24009KT P6SM SKC
FM181900 26009G16KT P6SM SKC
FM190100 23006KT P6SM SKC
FM191100 VRB03KT P6SM SKC
KZAB FIR / North America



MET'MAP, your aeronautical weather chart ! - Copyright ORBIFLY December 2007 - Disclaimer

ORBIFLY MET'MAP TEAM :

Programming & Development : Alexandra Zaïnal
Concept & Development : Baudouin d'Aumeries
Co-Development & Prog : Marc-Olivier Méhu
Technical & hardware support : Manuel Goepfert

Contact : metmap@orbifly.com




SOURCES & CREDITS :

   NOAA       Earth
Advisory